Time;durP1;ratioP1;P1;durP2;ratioP2;P2;SDS_P1;SDS_P2;PMS_P1;PMS_P2;Temp;Humidity;BMP_temperature;BMP_pressure;BME280_temperature;BME280_humidity;BME280_pressure;Samples;Min_cycle;Max_cycle;Signal;HPM_P1;HPM_P2
2022/10/02 00:01:41;;;;;;;2.00;0.50;;;;;;;23.19;43.86;97405.34;5016970;28;20030;-34
2022/10/02 00:04:12;;;;;;;1.13;0.55;;;;;;;23.18;43.64;97401.06;5015932;28;20049;-34
2022/10/02 00:06:45;;;;;;;1.27;0.70;;;;;;;23.12;43.33;97398.22;5016803;28;20065;-34
2022/10/02 00:09:18;;;;;;;1.92;0.88;;;;;;;23.12;43.48;97398.22;5016447;28;20429;-34
2022/10/02 00:11:48;;;;;;;1.20;0.70;;;;;;;23.14;43.47;97397.72;5016805;28;20026;-34
2022/10/02 00:14:16;;;;;;;2.22;0.60;;;;;;;23.14;43.49;97401.25;5016386;28;20022;-34
2022/10/02 00:16:47;;;;;;;1.05;0.73;;;;;;;23.16;43.65;97398.78;5016666;28;20375;-34
2022/10/02 00:19:16;;;;;;;1.88;0.50;;;;;;;23.15;43.70;97402.78;5016471;28;20425;-34
2022/10/02 00:22:03;;;;;;;1.60;0.80;;;;;;;23.11;43.97;97405.03;5016716;28;20098;-34
2022/10/02 00:24:49;;;;;;;1.15;0.47;;;;;;;23.15;43.60;97408.31;5016266;28;20387;-35
2022/10/02 00:27:33;;;;;;;1.85;0.60;;;;;;;23.10;43.99;97400.75;5016243;28;20045;-34
2022/10/02 00:30:01;;;;;;;1.75;0.70;;;;;;;23.14;43.61;97406.78;5016389;28;20026;-34
2022/10/02 00:32:40;;;;;;;2.05;0.68;;;;;;;23.08;43.98;97408.75;5016125;28;20069;-34
2022/10/02 00:35:26;;;;;;;1.40;0.50;;;;;;;23.07;44.05;97418.31;5014886;28;20417;-34
2022/10/02 00:38:09;;;;;;;3.28;0.80;;;;;;;23.08;44.12;97411.53;5015891;28;20490;-34
2022/10/02 00:40:47;;;;;;;2.50;0.60;;;;;;;23.13;43.98;97412.81;5015994;28;20405;-34
2022/10/02 00:43:39;;;;;;;3.17;0.60;;;;;;;23.14;43.59;97401.25;5015887;28;20033;-34
2022/10/02 00:46:33;;;;;;;3.70;0.75;;;;;;;23.14;43.79;97401.25;5015809;28;20050;-35
2022/10/02 00:49:29;;;;;;;1.50;0.75;;;;;;;23.11;43.80;97391.19;5016085;28;20029;-34
2022/10/02 00:52:25;;;;;;;2.25;0.93;;;;;;;23.10;44.00;97394.44;5015754;28;20030;-34
2022/10/02 00:55:09;;;;;;;1.50;0.57;;;;;;;23.09;43.74;97401.97;5015753;28;20032;-34
2022/10/02 00:57:48;;;;;;;0.80;0.40;;;;;;;23.05;44.00;97403.44;5016022;28;20053;-34
2022/10/02 01:00:16;;;;;;;1.20;0.70;;;;;;;23.10;43.83;97406.28;5015688;28;20018;-34
2022/10/02 01:03:07;;;;;;;1.08;0.45;;;;;;;23.13;43.55;97402.50;5015664;28;20061;-34
2022/10/02 01:05:34;;;;;;;1.30;0.73;;;;;;;23.14;43.47;97387.44;5015402;28;20030;-34
2022/10/02 01:08:00;;;;;;;2.55;1.17;;;;;;;23.14;43.58;97383.91;5015572;28;20437;-34
2022/10/02 01:10:26;;;;;;;1.98;0.70;;;;;;;23.13;43.55;97387.91;5015607;28;20030;-35
2022/10/02 01:12:54;;;;;;;3.28;1.00;;;;;;;23.13;43.30;97394.22;5015526;28;20352;-34
2022/10/02 01:15:30;;;;;;;2.28;1.08;;;;;;;23.17;43.06;97400.28;5014005;28;20104;-34
2022/10/02 01:17:56;;;;;;;2.03;0.70;;;;;;;23.13;43.72;97398.97;5015654;28;20513;-34
2022/10/02 01:20:43;;;;;;;2.28;0.82;;;;;;;23.14;43.37;97392.97;5015229;28;20029;-34
2022/10/02 01:23:18;;;;;;;2.08;0.90;;;;;;;23.07;43.51;97392.63;5015408;28;20025;-34
2022/10/02 01:25:44;;;;;;;1.48;1.10;;;;;;;23.12;43.19;97391.94;5015378;28;20037;-34
2022/10/02 01:28:10;;;;;;;2.67;0.80;;;;;;;23.14;43.18;97390.19;5015500;28;20029;-34
2022/10/02 01:30:43;;;;;;;3.60;1.05;;;;;;;23.20;43.42;97391.03;5015317;28;21300;-34
2022/10/02 01:33:11;;;;;;;;;;;;;;;23.03;43.47;97390.06;5015483;28;20386;-34
2022/10/02 01:35:38;;;;;;;3.30;0.70;;;;;;;23.07;43.55;97392.63;5014878;28;19913;-34
2022/10/02 01:38:08;;;;;;;2.03;0.93;;;;;;;23.08;43.16;97394.94;5014958;28;20575;-34
2022/10/02 01:40:36;;;;;;;1.80;1.08;;;;;;;23.07;43.60;97396.16;5014898;28;20030;-34
2022/10/02 01:43:03;;;;;;;1.55;0.90;;;;;;;23.15;43.27;97394.47;5014935;28;20033;-34
2022/10/02 01:45:43;;;;;;;2.90;1.00;;;;;;;23.14;43.20;97390.19;5014685;28;20060;-34
2022/10/02 01:48:28;;;;;;;1.67;1.10;;;;;;;23.12;43.19;97381.63;5014682;28;20036;-34
2022/10/02 01:51:02;;;;;;;5.20;1.20;;;;;;;23.07;43.00;97389.88;5014602;28;20105;-34
2022/10/02 01:53:38;;;;;;;1.90;1.15;;;;;;;23.11;43.47;97385.66;5014675;28;20096;-34
2022/10/02 01:56:06;;;;;;;2.47;0.80;;;;;;;23.09;43.43;97385.38;5015001;28;20025;-34
2022/10/02 01:58:51;;;;;;;2.58;1.23;;;;;;;23.13;42.90;97391.44;5014580;28;20481;-34
2022/10/02 02:01:38;;;;;;;2.35;1.00;;;;;;;23.13;43.04;97396.22;5014552;28;20030;-34
2022/10/02 02:04:09;;;;;;;3.03;0.88;;;;;;;23.06;43.32;97397.41;5014550;28;20050;-34
2022/10/02 02:06:47;;;;;;;1.65;0.80;;;;;;;23.12;43.11;97398.22;5014513;28;20485;-34
2022/10/02 02:09:39;;;;;;;1.65;0.80;;;;;;;23.15;43.14;97402.78;5014349;28;20022;-34
2022/10/02 02:12:14;;;;;;;2.97;1.17;;;;;;;23.18;42.75;97401.81;5013786;28;20038;-34
2022/10/02 02:15:01;;;;;;;1.77;0.90;;;;;;;23.12;43.20;97394.72;5014265;28;20386;-35
2022/10/02 02:17:33;;;;;;;1.42;0.60;;;;;;;23.18;42.86;97401.06;5014218;28;20030;-34
2022/10/02 02:20:04;;;;;;;1.15;0.70;;;;;;;23.23;42.97;97403.91;5014374;28;20113;-34
2022/10/02 02:22:35;;;;;;;1.85;0.63;;;;;;;23.20;43.32;97398.56;5014246;28;20494;-34
2022/10/02 02:25:12;;;;;;;1.85;0.65;;;;;;;23.12;43.01;97392.69;5014440;28;20025;-34
2022/10/02 02:27:41;;;;;;;1.40;0.60;;;;;;;23.07;43.43;97396.16;5014040;28;20044;-34
2022/10/02 02:30:13;;;;;;;1.90;0.95;;;;;;;23.08;42.76;97394.94;5013999;28;20030;-34
2022/10/02 02:32:45;;;;;;;2.13;0.70;;;;;;;23.12;43.12;97397.50;5014178;28;20030;-34
2022/10/02 02:35:21;;;;;;;3.87;0.70;;;;;;;23.08;42.86;97394.16;5014140;28;20022;-34
2022/10/02 02:37:51;;;;;;;2.58;0.90;;;;;;;23.09;43.17;97399.22;5013863;28;20289;-34
2022/10/02 02:40:28;;;;;;;2.08;0.88;;;;;;;23.04;43.24;97402.66;5013887;28;20489;-34
2022/10/02 02:43:14;;;;;;;2.90;0.95;;;;;;;23.11;42.94;97405.03;5013847;28;20026;-35
2022/10/02 02:45:53;;;;;;;1.58;0.77;;;;;;;23.15;42.70;97399.25;5014121;28;20073;-34
2022/10/02 02:48:21;;;;;;;2.75;0.60;;;;;;;23.20;43.09;97399.34;5013850;28;20034;-34
2022/10/02 02:50:52;;;;;;;2.63;0.63;;;;;;;23.17;42.70;97400.28;5029484;28;20033;-34
2022/10/02 02:53:34;;;;;;;1.58;0.88;;;;;;;23.12;42.80;97401.00;5033509;28;20029;-34
2022/10/02 02:56:07;;;;;;;0.98;0.50;;;;;;;23.11;42.93;97405.03;5033477;28;20033;-34
2022/10/02 02:58:58;;;;;;;1.50;0.70;;;;;;;23.12;43.01;97391.94;5033477;28;20025;-34
2022/10/02 03:01:23;;;;;;;3.03;0.65;;;;;;;23.16;42.55;97396.00;5033427;28;20025;-34
2022/10/02 03:03:49;;;;;;;1.17;0.70;;;;;;;23.07;42.84;97393.41;5033110;28;20374;-34
2022/10/02 03:06:14;;;;;;;2.17;0.70;;;;;;;23.10;43.07;97399.97;5033070;28;20395;-34
2022/10/02 03:08:40;;;;;;;1.23;0.60;;;;;;;23.09;43.00;97409.53;5033160;28;20524;-34
2022/10/02 03:11:39;;;;;;;2.78;0.63;;;;;;;23.10;42.98;97411.81;5033449;28;20025;-34
2022/10/02 03:14:23;;;;;;;1.45;0.70;;;;;;;23.10;43.02;97411.03;5033234;28;20022;-34
2022/10/02 03:17:15;;;;;;;2.83;0.73;;;;;;;23.09;42.84;97410.28;5033245;28;20036;-34
2022/10/02 03:19:43;;;;;;;1.95;0.60;;;;;;;23.10;42.91;97409.03;5033319;28;20017;-34
2022/10/02 03:22:19;;;;;;;3.08;0.80;;;;;;;23.10;42.59;97414.56;5033094;28;20029;-34
2022/10/02 03:25:13;;;;;;;1.08;0.45;;;;;;;23.14;42.76;97423.41;5033228;28;20033;-34
2022/10/02 03:27:44;;;;;;;1.58;0.73;;;;;;;23.07;42.29;97428.59;5032655;28;20034;-34
2022/10/02 03:30:14;;;;;;;2.70;0.60;;;;;;;23.09;42.63;97423.34;5033233;28;20048;-34
2022/10/02 03:32:45;;;;;;;1.90;0.77;;;;;;;23.03;42.74;97422.50;5032989;28;20026;-34
2022/10/02 03:35:12;;;;;;;1.35;0.70;;;;;;;23.12;42.60;97431.41;5033346;28;20492;-34
2022/10/02 03:37:45;;;;;;;1.73;0.70;;;;;;;23.11;42.36;97429.16;5032743;28;20060;-33
2022/10/02 03:40:11;;;;;;;1.85;0.52;;;;;;;23.14;42.81;97423.41;5033433;28;20022;-34
2022/10/02 03:42:37;;;;;;;0.82;0.60;;;;;;;23.06;42.64;97422.31;5033023;28;20029;-34
2022/10/02 03:45:04;;;;;;;1.50;0.50;;;;;;;23.10;42.50;97411.81;5033143;28;20078;-34
2022/10/02 03:47:29;;;;;;;1.40;0.50;;;;;;;23.08;42.81;97416.28;5032979;28;20026;-34
2022/10/02 03:49:55;;;;;;;1.27;0.45;;;;;;;23.08;42.23;97417.06;5032858;28;20034;-34
2022/10/02 03:52:22;;;;;;;1.30;0.60;;;;;;;23.06;42.58;97424.31;5032992;28;20032;-34
2022/10/02 03:54:56;;;;;;;1.55;0.45;;;;;;;23.07;42.06;97418.31;5032829;28;20489;-35
2022/10/02 03:57:24;;;;;;;1.27;0.40;;;;;;;23.07;42.28;97423.06;5032873;28;20477;-34
2022/10/02 04:00:07;;;;;;;1.98;0.60;;;;;;;23.08;42.29;97419.06;5032861;28;20018;-35
2022/10/02 04:03:24;;;;;;;1.60;0.40;;;;;;;23.05;42.21;97425.56;5032924;28;20025;-34
2022/10/02 04:06:04;;;;;;;1.38;0.93;;;;;;;23.06;42.48;97432.63;5032788;28;20037;-34
2022/10/02 04:08:32;;;;;;;1.23;0.60;;;;;;;23.03;42.38;97428.81;5032885;28;20033;-34
2022/10/02 04:11:16;;;;;;;1.58;0.50;;;;;;;23.06;42.33;97422.31;5032530;28;20490;-34
2022/10/02 04:13:45;;;;;;;2.33;0.60;;;;;;;23.09;42.39;97426.13;5032983;28;20032;-34
2022/10/02 04:16:20;;;;;;;1.10;0.50;;;;;;;23.06;42.32;97424.31;5032595;28;20048;-34
2022/10/02 04:18:48;;;;;;;2.05;0.50;;;;;;;23.07;42.38;97429.38;5036249;28;20033;-34
2022/10/02 04:21:35;;;;;;;1.60;0.60;;;;;;;23.08;42.20;97424.59;5036526;28;20029;-34
2022/10/02 04:24:08;;;;;;;1.48;0.60;;;;;;;23.04;42.54;97424.03;5036058;28;20080;-34
2022/10/02 04:26:39;;;;;;;1.13;0.60;;;;;;;23.02;42.38;97424.53;5036461;28;20025;-34
2022/10/02 04:29:27;;;;;;;1.58;0.50;;;;;;;23.01;42.56;97425.75;5035981;28;20362;-34
2022/10/02 04:32:13;;;;;;;1.85;0.65;;;;;;;23.03;42.57;97428.03;5036289;28;20051;-34
2022/10/02 04:34:39;;;;;;;1.13;0.57;;;;;;;23.05;42.59;97422.78;5035954;28;20041;-34
2022/10/02 04:37:30;;;;;;;1.98;0.70;;;;;;;23.07;42.57;97429.38;5035897;28;20022;-34
2022/10/02 04:40:19;;;;;;;2.47;0.57;;;;;;;23.03;42.54;97414.97;5035673;28;20379;-34
2022/10/02 04:42:48;;;;;;;2.15;0.55;;;;;;;22.99;42.29;97414.44;5035669;28;20087;-34
2022/10/02 04:45:37;;;;;;;1.52;0.50;;;;;;;23.04;42.67;97412.97;5035806;28;20104;-34
2022/10/02 04:48:02;;;;;;;1.20;0.63;;;;;;;23.04;42.37;97408.19;5035875;28;20018;-34
2022/10/02 04:50:36;;;;;;;2.72;0.60;;;;;;;22.99;42.45;97419.97;5034217;28;20083;-34
2022/10/02 04:53:15;;;;;;;1.67;0.50;;;;;;;23.02;42.51;97419.00;5035889;28;20040;-34
2022/10/02 04:56:02;;;;;;;1.20;0.47;;;;;;;22.98;42.70;97410.16;5035748;28;20021;-34
2022/10/02 04:59:03;;;;;;;2.47;0.70;;;;;;;23.03;42.76;97400.38;5035654;28;20034;-34
2022/10/02 05:02:00;;;;;;;0.80;0.50;;;;;;;23.05;42.32;97395.88;5035663;28;20533;-34
2022/10/02 05:04:44;;;;;;;1.55;0.60;;;;;;;22.98;42.76;97410.16;5035366;28;20043;-34
2022/10/02 05:07:21;;;;;;;0.80;0.50;;;;;;;22.94;42.91;97406.84;5035292;28;20065;-34
2022/10/02 05:10:04;;;;;;;1.90;0.82;;;;;;;22.93;42.94;97419.91;5035168;28;20065;-34
2022/10/02 05:12:49;;;;;;;2.63;0.60;;;;;;;22.95;42.63;97421.44;5034163;28;20363;-34
2022/10/02 05:15:42;;;;;;;0.95;0.68;;;;;;;22.97;42.69;97425.22;5035271;28;20052;-34
2022/10/02 05:18:33;;;;;;;2.63;0.70;;;;;;;22.96;42.46;97417.41;5035141;28;20033;-34
2022/10/02 05:21:29;;;;;;;0.95;0.50;;;;;;;22.98;42.63;97418.47;5035202;28;20022;-34
2022/10/02 05:24:33;;;;;;;0.68;0.47;;;;;;;22.99;42.77;97421.97;5034958;28;20119;-34
2022/10/02 05:27:20;;;;;;;1.83;0.50;;;;;;;22.94;42.48;97420.66;5034883;28;20390;-34
2022/10/02 05:30:12;;;;;;;1.33;0.57;;;;;;;22.99;42.61;97419.97;5034984;28;20033;-34
2022/10/02 05:33:05;;;;;;;1.60;0.50;;;;;;;22.95;42.57;97422.19;5034878;28;20034;-34
2022/10/02 05:35:34;;;;;;;0.68;0.40;;;;;;;22.94;42.34;97415.13;5034795;28;20041;-34
2022/10/02 05:38:20;;;;;;;1.00;0.52;;;;;;;22.89;42.59;97413.03;5034592;28;20052;-34
2022/10/02 05:40:46;;;;;;;1.15;0.57;;;;;;;22.92;42.63;97403.78;5033401;28;20028;-34
2022/10/02 05:43:25;;;;;;;1.50;0.55;;;;;;;23.00;42.50;97415.19;5034923;28;20100;-34
2022/10/02 05:46:07;;;;;;;0.95;0.50;;;;;;;22.91;42.66;97413.31;5034330;28;20079;-34
2022/10/02 05:48:43;;;;;;;0.73;0.38;;;;;;;22.87;42.54;97410.75;5034825;28;20034;-35
2022/10/02 05:51:15;;;;;;;2.45;0.60;;;;;;;22.88;42.43;97428.88;5034747;28;20048;-34
2022/10/02 05:54:00;;;;;;;1.48;0.52;;;;;;;22.86;42.30;97423.09;5034446;28;20060;-34
2022/10/02 05:56:33;;;;;;;2.63;0.70;;;;;;;22.93;42.27;97421.91;5034475;28;20033;-34
2022/10/02 05:59:45;;;;;;;2.47;0.50;;;;;;;22.94;42.50;97415.13;5034251;28;20388;-34
2022/10/02 06:02:37;;;;;;;1.05;0.60;;;;;;;22.95;42.24;97421.44;5032010;28;20029;-34
2022/10/02 06:05:13;;;;;;;1.40;0.40;;;;;;;22.93;42.64;97408.06;5027569;28;20458;-34
2022/10/02 06:07:43;;;;;;;2.58;0.65;;;;;;;22.89;42.48;97401.97;5032059;28;20100;-34
2022/10/02 06:10:33;;;;;;;2.00;0.60;;;;;;;22.91;42.37;97416.84;5031980;28;20033;-34
2022/10/02 06:13:09;;;;;;;2.03;0.65;;;;;;;22.83;42.40;97432.34;5032229;28;20025;-34
2022/10/02 06:16:18;;;;;;;1.60;0.60;;;;;;;22.94;42.28;97428.97;5031914;28;20029;-34
2022/10/02 06:18:48;;;;;;;1.45;0.50;;;;;;;22.94;42.54;97437.25;4935149;29;20034;-34
2022/10/02 06:21:31;;;;;;;1.60;0.60;;;;;;;22.90;42.88;97436.69;4934661;29;20171;-34
2022/10/02 06:24:01;;;;;;;1.85;0.75;;;;;;;22.92;42.61;97440.50;4934650;29;20050;-34
2022/10/02 06:26:55;;;;;;;1.40;0.55;;;;;;;22.90;42.80;97443.00;4934462;29;20039;-34
2022/10/02 06:29:30;;;;;;;3.10;0.73;;;;;;;22.91;43.02;97449.28;4934482;29;20036;-34
2022/10/02 06:32:11;;;;;;;1.30;0.60;;;;;;;22.90;42.71;97445.75;4934693;29;20529;-34
2022/10/02 06:34:36;;;;;;;1.27;0.50;;;;;;;22.92;43.05;97454.34;4934682;29;20042;-34
2022/10/02 06:37:22;;;;;;;1.85;0.60;;;;;;;22.93;43.02;97461.41;4952589;29;20035;-34
2022/10/02 06:40:10;;;;;;;1.02;0.50;;;;;;;22.92;43.24;97470.19;4952798;28;20074;-34
2022/10/02 06:43:20;;;;;;;1.63;0.75;;;;;;;22.91;43.22;97488.78;4953676;29;20118;-34
2022/10/02 06:45:57;;;;;;;3.38;0.60;;;;;;;22.87;43.42;97495.78;4934337;29;20032;-34
2022/10/02 06:48:49;;;;;;;3.28;0.80;;;;;;;22.93;43.18;97483.53;4934267;29;20044;-34
2022/10/02 06:51:46;;;;;;;1.40;0.80;;;;;;;22.94;43.39;97481.53;4918475;29;20033;-34
2022/10/02 06:54:29;;;;;;;1.35;0.70;;;;;;;22.90;43.45;97481.72;4992104;28;20050;-34
2022/10/02 06:57:22;;;;;;;1.27;0.60;;;;;;;22.89;43.67;97494.03;4992116;28;20026;-34
2022/10/02 07:00:00;;;;;;;1.73;0.63;;;;;;;22.89;43.73;97502.31;4991907;28;20041;-34
2022/10/02 07:02:39;;;;;;;1.23;0.50;;;;;;;22.93;43.33;97496.59;4991995;28;20455;-34
2022/10/02 07:05:23;;;;;;;1.65;0.50;;;;;;;22.91;43.98;97499.06;4992103;28;20113;-34
2022/10/02 07:08:03;;;;;;;1.85;0.50;;;;;;;22.89;43.73;97499.56;4992171;28;20121;-34
2022/10/02 07:10:31;;;;;;;4.38;0.90;;;;;;;22.89;44.01;97496.78;4991781;28;20026;-34
2022/10/02 07:13:10;;;;;;;1.55;0.80;;;;;;;22.90;43.85;97498.31;4990507;28;20042;-34
2022/10/02 07:15:57;;;;;;;1.58;0.60;;;;;;;22.92;43.91;97506.91;4978846;28;20069;-34
2022/10/02 07:18:34;;;;;;;1.73;0.77;;;;;;;22.97;44.04;97505.47;4980944;28;20031;-34
2022/10/02 07:21:33;;;;;;;2.08;1.45;;;;;;;22.93;43.88;97507.66;5029745;28;20025;-34
2022/10/02 07:24:24;;;;;;;1.35;0.68;;;;;;;22.89;44.05;97507.84;5030636;28;20033;-35
2022/10/02 07:27:14;;;;;;;2.00;0.50;;;;;;;22.89;44.07;97510.63;5031169;28;20386;-34
2022/10/02 07:29:56;;;;;;;2.80;0.60;;;;;;;22.96;43.77;97512.22;5031351;28;20037;-34
2022/10/02 07:32:49;;;;;;;1.58;0.60;;;;;;;22.84;44.39;97522.38;5031260;28;20025;-35
2022/10/02 07:35:27;;;;;;;1.20;0.55;;;;;;;22.87;43.97;97524.16;5031455;28;20040;-34
2022/10/02 07:38:14;;;;;;;1.25;0.68;;;;;;;22.88;44.35;97516.63;5030733;28;20029;-34
2022/10/02 07:40:58;;;;;;;3.47;1.00;;;;;;;22.88;44.18;97516.63;5029222;28;20033;-34
2022/10/02 07:43:51;;;;;;;2.60;0.70;;;;;;;22.90;44.25;97519.69;5031209;28;20076;-35
2022/10/02 07:46:22;;;;;;;2.05;0.60;;;;;;;22.84;44.50;97511.31;5031486;28;20442;-34
2022/10/02 07:49:06;;;;;;;2.88;0.65;;;;;;;22.88;44.51;97514.63;5030608;28;20033;-34
2022/10/02 07:51:49;;;;;;;2.15;0.70;;;;;;;22.87;44.66;97517.91;5032893;28;20045;-35
2022/10/02 07:54:47;;;;;;;3.07;0.60;;;;;;;22.84;44.68;97516.09;5034974;28;20030;-34
2022/10/02 07:57:29;;;;;;;1.70;0.52;;;;;;;22.87;44.44;97515.13;5035071;28;20437;-34
2022/10/02 08:00:01;;;;;;;1.92;0.60;;;;;;;22.92;44.53;97515.19;5035017;28;20032;-34
2022/10/02 08:02:32;;;;;;;2.20;0.52;;;;;;;22.80;44.50;97516.28;5034321;28;20077;-34
2022/10/02 08:05:03;;;;;;;1.92;0.70;;;;;;;22.76;45.15;97510.19;5034637;28;20797;-34
2022/10/02 08:07:29;;;;;;;0.82;0.40;;;;;;;22.87;44.51;97507.56;5034282;28;20136;-34
2022/10/02 08:09:56;;;;;;;2.15;0.70;;;;;;;22.84;44.99;97511.31;5014761;28;20029;-34
2022/10/02 08:12:38;;;;;;;1.98;0.70;;;;;;;22.88;44.86;97511.88;5014669;28;20073;-34
2022/10/02 08:15:05;;;;;;;1.98;0.70;;;;;;;22.75;45.47;97508.63;5014756;28;20100;-34
2022/10/02 08:17:33;;;;;;;1.00;0.70;;;;;;;22.81;45.25;97517.03;5014528;28;20343;-34
2022/10/02 08:20:18;;;;;;;2.17;0.70;;;;;;;22.71;45.79;97521.16;5014493;28;20430;-34
2022/10/02 08:22:54;;;;;;;1.30;0.60;;;;;;;22.83;44.97;97523.63;5014623;28;20029;-34
2022/10/02 08:25:33;;;;;;;2.08;0.80;;;;;;;22.69;45.79;97531.94;5014311;28;20125;-34
2022/10/02 08:28:00;;;;;;;2.22;0.80;;;;;;;22.76;45.35;97537.06;5014554;28;20033;-34
2022/10/02 08:30:26;;;;;;;1.38;0.75;;;;;;;22.62;45.88;97535.09;5014356;28;20026;-34
2022/10/02 08:32:52;;;;;;;3.33;0.80;;;;;;;22.71;45.92;97529.44;5014322;28;20029;-34
2022/10/02 08:35:19;;;;;;;1.70;0.70;;;;;;;22.69;45.77;97529.94;5014283;28;20095;-34
2022/10/02 08:38:19;;;;;;;2.53;0.90;;;;;;;22.78;45.53;97526.31;5013971;28;20030;-34
2022/10/02 08:41:03;;;;;;;2.05;0.70;;;;;;;22.61;46.50;97520.53;5012555;28;20018;-34
2022/10/02 08:44:03;;;;;;;1.60;0.80;;;;;;;22.67;46.20;97529.63;5013906;28;20025;-34
2022/10/02 08:46:47;;;;;;;1.88;0.70;;;;;;;22.72;45.95;97528.22;5014485;28;20025;-34
2022/10/02 08:49:51;;;;;;;2.22;0.80;;;;;;;22.76;46.03;97546.13;5016411;28;20383;-34
2022/10/02 08:52:22;;;;;;;2.80;0.70;;;;;;;22.80;45.84;97548.72;5015916;28;20461;-34
2022/10/02 08:55:06;;;;;;;1.75;1.10;;;;;;;22.86;45.53;97546.81;5015876;28;20076;-34
2022/10/02 08:57:51;;;;;;;3.08;0.80;;;;;;;22.60;46.56;97543.09;5015728;28;20026;-34
2022/10/02 09:00:35;;;;;;;2.88;0.90;;;;;;;22.74;45.80;97540.31;5016125;28;20022;-34
2022/10/02 09:03:07;;;;;;;2.63;0.90;;;;;;;22.87;45.68;97542.78;5014698;28;20084;-34
2022/10/02 09:05:36;;;;;;;2.90;0.60;;;;;;;22.80;46.13;97532.13;5015602;28;20116;-34
2022/10/02 09:08:33;;;;;;;2.58;0.70;;;;;;;22.85;45.78;97539.75;5015535;28;20018;-34
2022/10/02 09:11:31;;;;;;;1.33;0.80;;;;;;;22.88;45.86;97545.06;5015386;28;20395;-34
2022/10/02 09:14:21;;;;;;;1.65;0.70;;;;;;;22.73;46.10;97543.56;5015580;28;20080;-34
2022/10/02 09:16:52;;;;;;;2.13;0.70;;;;;;;22.68;46.48;97544.22;5015322;28;20026;-34
2022/10/02 09:19:40;;;;;;;2.47;0.60;;;;;;;22.57;46.33;97520.72;5015547;28;20047;-34
2022/10/02 09:22:31;;;;;;;2.22;0.60;;;;;;;22.51;46.72;97528.13;5015292;28;20029;-34
2022/10/02 09:25:21;;;;;;;2.60;0.60;;;;;;;22.57;46.65;97523.47;5017071;28;20045;-34
2022/10/02 09:28:16;;;;;;;2.35;0.70;;;;;;;22.69;46.60;97518.09;5013453;28;20026;-34
2022/10/02 09:31:17;;;;;;;2.72;0.68;;;;;;;22.75;46.11;97528.00;5013250;28;20033;-34
2022/10/02 09:34:13;;;;;;;1.75;0.70;;;;;;;22.75;46.31;97532.78;5012543;28;20091;-34
2022/10/02 09:36:44;;;;;;;2.15;0.77;;;;;;;22.87;45.91;97528.97;5012928;28;20052;-34
2022/10/02 09:39:53;;;;;;;1.33;0.50;;;;;;;22.88;45.82;97538.75;5012928;28;20056;-35
2022/10/02 09:42:56;;;;;;;1.98;0.70;;;;;;;22.87;45.92;97535.22;5013000;28;20509;-34
2022/10/02 09:46:00;;;;;;;3.05;0.80;;;;;;;22.76;46.51;97534.31;5013157;28;20079;-34
2022/10/02 09:48:47;;;;;;;1.25;0.70;;;;;;;22.74;46.57;97534.78;5012179;28;20041;-34
2022/10/02 09:51:43;;;;;;;1.77;0.63;;;;;;;22.82;46.39;97532.41;5012964;28;20051;-34
2022/10/02 09:54:47;;;;;;;2.17;0.70;;;;;;;22.89;46.29;97534.75;5012885;28;20026;-34
2022/10/02 09:57:29;;;;;;;1.52;0.52;;;;;;;22.66;46.87;97536.41;5011607;28;20698;-35
2022/10/02 10:00:01;;;;;;;1.52;0.60;;;;;;;22.74;46.44;97536.78;5012688;28;20041;-34
2022/10/02 10:03:10;;;;;;;1.40;0.63;;;;;;;22.86;46.18;97525.44;5012508;28;20030;-34
2022/10/02 10:06:24;;;;;;;2.17;0.68;;;;;;;22.73;46.65;97532.50;5012768;28;20046;-34
2022/10/02 10:09:18;;;;;;;4.57;1.45;;;;;;;22.74;46.44;97536.78;5018473;28;20502;-34
2022/10/02 10:12:21;;;;;;;2.17;0.57;;;;;;;22.86;46.50;97530.22;5029516;28;20045;-34
2022/10/02 10:15:08;;;;;;;2.72;1.02;;;;;;;22.91;46.22;97524.72;5032065;28;20029;-34
2022/10/02 10:18:09;;;;;;;1.65;0.47;;;;;;;22.93;45.87;97530.56;5031150;28;20029;-34
2022/10/02 10:21:19;;;;;;;1.73;0.60;;;;;;;22.86;46.50;97524.69;5032346;28;20022;-34
2022/10/02 10:24:32;;;;;;;0.63;0.43;;;;;;;22.92;45.97;97528.25;5031887;28;20029;-34
2022/10/02 10:27:03;;;;;;;1.63;0.63;;;;;;;23.00;46.11;97517.53;5029724;28;20044;-34
2022/10/02 10:29:55;;;;;;;1.55;0.70;;;;;;;22.92;46.33;97519.97;5029543;28;20052;-34
2022/10/02 10:32:59;;;;;;;1.70;0.50;;;;;;;22.97;46.10;97513.75;5029401;28;20033;-34
2022/10/02 10:35:46;;;;;;;1.48;0.50;;;;;;;22.98;46.16;97506.97;5029421;28;20512;-35
2022/10/02 10:38:32;;;;;;;1.25;0.60;;;;;;;23.03;45.82;97511.81;5029394;28;20096;-34
2022/10/02 10:41:34;;;;;;;2.35;0.80;;;;;;;22.78;47.16;97507.72;5007559;28;20025;-34
2022/10/02 10:44:11;;;;;;;1.95;0.63;;;;;;;22.74;47.18;97511.91;5026885;28;20046;-34
2022/10/02 10:46:49;;;;;;;1.65;0.82;;;;;;;22.90;46.42;97509.38;5006992;28;20029;-34
2022/10/02 10:49:46;;;;;;;3.42;0.80;;;;;;;22.88;46.47;97508.34;5009179;28;20129;-34
2022/10/02 10:52:17;;;;;;;0.98;0.50;;;;;;;22.97;46.67;97515.75;5009594;28;20573;-35
2022/10/02 10:54:53;;;;;;;1.02;0.45;;;;;;;22.99;46.58;97516.81;5009519;28;20076;-35
2022/10/02 10:57:25;;;;;;;1.65;0.55;;;;;;;22.98;46.42;97509.75;5009429;28;20545;-34
2022/10/02 11:00:15;;;;;;;2.17;0.60;;;;;;;22.98;46.58;97503.44;5009020;28;20576;-34
2022/10/02 11:03:18;;;;;;;0.98;0.50;;;;;;;22.90;46.55;97490.00;5010238;28;20038;-34
2022/10/02 11:06:12;;;;;;;2.95;0.43;;;;;;;22.89;46.29;97496.03;5011716;28;20192;-34
2022/10/02 11:08:54;;;;;;;1.83;0.43;;;;;;;23.01;46.25;97489.41;5011269;28;20049;-35
2022/10/02 11:11:51;;;;;;;3.15;0.90;;;;;;;22.84;46.40;97494.72;5010162;28;20486;-34
2022/10/02 11:14:23;;;;;;;1.40;0.45;;;;;;;23.00;46.09;97496.16;5011599;28;20105;-34
2022/10/02 11:17:13;;;;;;;1.30;0.57;;;;;;;23.04;46.38;97498.75;5009826;28;20033;-35
2022/10/02 11:20:09;;;;;;;0.55;0.30;;;;;;;23.08;45.95;97508.38;5011600;28;20670;-34
2022/10/02 11:22:37;;;;;;;2.20;0.60;;;;;;;22.99;46.35;97500.22;5011693;28;20486;-34
2022/10/02 11:25:20;;;;;;;1.13;0.50;;;;;;;23.00;46.31;97496.16;5011476;28;20091;-34
2022/10/02 11:28:10;;;;;;;2.78;0.50;;;;;;;22.98;46.26;97493.16;5015647;28;20037;-34
2022/10/02 11:30:54;;;;;;;1.63;0.65;;;;;;;23.09;46.25;97487.75;5015689;28;21057;-34
2022/10/02 11:33:34;;;;;;;1.70;0.52;;;;;;;23.09;45.88;97473.16;5015611;28;20038;-34
2022/10/02 11:36:41;;;;;;;1.58;0.40;;;;;;;23.06;46.08;97477.66;5026202;28;20116;-34
2022/10/02 11:39:14;;;;;;;2.88;0.50;;;;;;;23.13;46.06;97476.47;5035147;28;20485;-34
2022/10/02 11:41:58;;;;;;;2.08;0.50;;;;;;;23.12;46.05;97469.44;5034994;28;20038;-34
2022/10/02 11:44:55;;;;;;;1.00;0.60;;;;;;;23.05;46.23;97470.59;5034913;28;20104;-34
2022/10/02 11:48:08;;;;;;;0.35;0.30;;;;;;;23.05;46.14;97456.75;5034801;28;20056;-35
2022/10/02 11:50:36;;;;;;;1.70;0.40;;;;;;;23.07;46.45;97461.81;5033496;28;20048;-34
2022/10/02 11:53:23;;;;;;;1.33;0.40;;;;;;;23.07;46.40;97453.50;5034918;28;20028;-34
2022/10/02 11:56:05;;;;;;;2.60;0.57;;;;;;;23.05;46.18;97459.53;5034795;28;20477;-35
2022/10/02 11:58:44;;;;;;;1.23;0.45;;;;;;;23.11;46.25;97448.53;5034931;28;20068;-34
2022/10/02 12:01:21;;;;;;;1.60;0.50;;;;;;;23.10;46.09;97453.31;5034505;28;20091;-34
2022/10/02 12:03:51;;;;;;;1.63;0.50;;;;;;;23.12;46.36;97450.06;5034485;28;20049;-34
2022/10/02 12:06:34;;;;;;;1.00;0.40;;;;;;;23.07;46.44;97451.50;5034678;28;20037;-34
2022/10/02 12:09:21;;;;;;;0.98;0.40;;;;;;;23.11;45.98;97452.06;5034594;28;20560;-34
2022/10/02 12:12:12;;;;;;;1.00;0.60;;;;;;;23.13;45.84;97452.31;5034459;28;20025;-34
2022/10/02 12:14:55;;;;;;;2.38;0.50;;;;;;;23.12;46.01;97456.31;5034643;28;20034;-34
2022/10/02 12:17:54;;;;;;;1.38;0.50;;;;;;;23.12;46.23;97450.78;5032711;28;20029;-34
2022/10/02 12:26:58;;;;;;;0.60;0.38;;;;;;;23.04;46.54;97441.41;5034410;28;20063;-34
2022/10/02 12:29:39;;;;;;;1.20;0.30;;;;;;;22.64;47.44;97455.94;5034295;28;20030;-34
2022/10/02 12:32:30;;;;;;;2.08;0.73;;;;;;;22.69;46.89;97444.22;5034042;28;20025;-34
2022/10/02 12:35:20;;;;;;;1.52;0.50;;;;;;;23.00;46.49;97440.06;5031653;28;20051;-35
2022/10/02 12:37:55;;;;;;;1.05;0.50;;;;;;;22.97;46.73;97430.75;5012910;28;20506;-34
2022/10/02 12:40:43;;;;;;;1.10;0.52;;;;;;;23.05;46.39;97437.38;5014193;28;20453;-34
2022/10/02 12:43:21;;;;;;;0.40;0.30;;;;;;;23.10;46.51;97436.72;5012796;28;20029;-34
2022/10/02 12:45:56;;;;;;;4.07;0.65;;;;;;;23.11;46.22;97427.16;5014186;28;20049;-34
2022/10/02 12:48:43;;;;;;;1.17;0.40;;;;;;;23.11;46.22;97418.84;5014033;28;20069;-34